Flight Track Log - Related Links

Times and Time Zones

All times are in EDT time to prevent confusion due to time zone crossing. See the ACA256 flight status page for this flight to view local times or setup timezone preferences in your user account.

Time Position Orientation Groundspeed Altitude Reporting Facility
EDT Latitude Longitude Course Direction KTS MPH feet Rate Location/Type
06:43AM 49.9000 -97.2333 90° East 120 138 1,300  Level Winnipeg Center
06:44AM 49.9333 -97.2833 316° Northwest 170 196 4,800 3,500 Climbing Winnipeg Center
06:45AM 49.9667 -97.2500 33° Northeast 240 276 8,300 3,100 Climbing Winnipeg Center
06:46AM 49.9000 -96.6403 90° East  Level FlightAware Approximate
06:46AM 49.9667 -97.1167 90° East 350 403 11,000  Level Winnipeg Center
06:47AM 49.9119 -96.4435 84° East  Level FlightAware Approximate
06:47AM 49.9500 -96.9333 98° East 390 449 14,800  Level Winnipeg Center
06:48AM 49.9167 -96.2461 90° East  Level FlightAware Approximate
06:48AM 49.9500 -96.7833 90° East 410 472 18,200  Level Winnipeg Center
06:49AM 49.9500 -96.5833 90° East 450 518 20,900 2,300 Climbing Winnipeg Center
06:50AM 49.9500 -96.3667 90° East 480 552 22,800 2,300 Climbing Winnipeg Center
06:51AM 49.9500 -96.1667 90° East 490 564 25,500 2,500 Climbing Winnipeg Center
06:52AM 49.9167 -95.9500 103° East 500 575 27,800 2,100 Climbing Winnipeg Center
06:53AM 49.9167 -95.7167 90° East 520 598 29,700 2,450 Climbing Winnipeg Center
06:54AM 49.9167 -95.4833 90° East 510 587 32,700 2,300 Climbing Winnipeg Center
06:55AM 49.9167 -95.2833 90° East 500 575 34,300 1,150 Climbing Winnipeg Center
06:56AM 49.9000 -95.0667 97° East 500 575 35,000 350 Climbing Winnipeg Center
06:57AM 49.9000 -94.8333 90° East 520 598 35,000  Level Winnipeg Center
06:58AM 49.8333 -94.6000 114° Southeast 540 621 35,000  Level Winnipeg Center
06:59AM 49.8000 -94.4000 104° East 540 621 35,000  Level Winnipeg Center
07:00AM 49.7667 -94.1500 102° East 540 621 35,000  Level Winnipeg Center
07:01AM 49.7167 -93.9333 110° East 540 621 35,000  Level Winnipeg Center
07:02AM 49.6667 -93.7167 110° East 540 621 35,000  Level Winnipeg Center
07:03AM 49.6167 -93.4833 108° East 540 621 35,000  Level Winnipeg Center
07:04AM 49.5833 -93.2833 104° East 550 633 35,000  Level Winnipeg Center
07:05AM 49.5500 -93.0500 102° East 540 621 35,000  Level Winnipeg Center
07:06AM 49.4833 -92.8167 114° Southeast 540 621 35,000  Level Winnipeg Center
07:07AM 49.4500 -92.5833 102° East 540 621 35,000  Level Winnipeg Center
07:08AM 49.4000 -92.3833 111° Southeast 540 621 35,000  Level Winnipeg Center
07:09AM 49.3500 -92.1667 109° East 540 621 35,000  Level Winnipeg Center
07:10AM 49.3167 -91.9333 102° East 540 621 35,000  Level Winnipeg Center
07:11AM 49.2500 -91.7167 115° Southeast 540 621 35,000  Level Winnipeg Center
07:12AM 49.2167 -91.5167 104° East 540 621 35,000  Level Winnipeg Center
07:13AM 49.1667 -91.2833 108° East 540 621 35,000  Level Winnipeg Center
07:14AM 49.1167 -91.0667 109° East 540 621 35,000  Level Winnipeg Center
07:15AM 49.0667 -90.8333 108° East 530 610 35,000  Level Winnipeg Center
07:16AM 49.0167 -90.6333 111° Southeast 540 621 35,000  Level Winnipeg Center
07:17AM 48.9667 -90.4333 111° Southeast 540 621 35,000  Level Winnipeg Center
07:18AM 48.9167 -90.1833 107° East 540 621 35,000  Level Winnipeg Center
07:19AM 48.8667 -90.0000 112° Southeast 540 621 35,000  Level Winnipeg Center
07:20AM 48.8167 -89.7667 108° East 550 633 35,000  Level Winnipeg Center
07:21AM 48.7667 -89.5500 109° East 540 621 35,000  Level Winnipeg Center
07:22AM 48.7167 -89.3500 111° Southeast 540 621 35,000  Level Winnipeg Center
07:23AM 48.6667 -89.1167 108° East 540 621 35,000  Level Winnipeg Center
07:24AM 48.6000 -88.9167 117° Southeast 540 621 35,000  Level Winnipeg Center
07:25AM 48.5167 -88.7333 124° Southeast 540 621 35,000  Level Winnipeg Center
07:26AM 48.4500 -88.5167 115° Southeast 540 621 35,000  Level Winnipeg Center
07:27AM 48.3667 -88.3167 122° Southeast 540 621 35,000  Level Winnipeg Center
07:28AM 48.3000 -88.1000 115° Southeast 540 621 35,000  Level Winnipeg Center
07:29AM 48.2333 -87.9167 119° Southeast 540 621 35,000  Level Winnipeg Center
07:30AM 48.1500 -87.7333 124° Southeast 540 621 35,000  Level Winnipeg Center
07:31AM 48.0833 -87.5500 119° Southeast 540 621 35,000  Level Winnipeg Center
07:32AM 48.0000 -87.3667 124° Southeast 540 621 35,000  Level Winnipeg Center
07:33AM 47.9333 -87.1667 116° Southeast 540 621 35,000  Level Winnipeg Center
07:34AM 47.8500 -86.9667 122° Southeast 540 621 35,000  Level Winnipeg Center
07:35AM 47.8333 -86.8833 107° East 540 621 35,000  Level Toronto Center
07:36AM 47.7333 -86.7000 129° Southeast 530 610 35,000  Level Toronto Center
07:37AM 47.6667 -86.5167 118° Southeast 530 610 35,000  Level Toronto Center
07:38AM 47.6000 -86.3000 114° Southeast 520 598 35,000  Level Toronto Center
07:39AM 47.5167 -86.1333 126° Southeast 520 598 35,000  Level Toronto Center
07:40AM 47.4500 -85.9500 118° Southeast 520 598 35,000  Level Toronto Center
07:41AM 47.3667 -85.7667 124° Southeast 530 610 35,000  Level Toronto Center
07:42AM 47.3000 -85.5833 118° Southeast 530 610 35,000  Level Toronto Center
07:43AM 47.2333 -85.3833 116° Southeast 530 610 35,000  Level Toronto Center
07:44AM 47.1500 -85.2167 126° Southeast 530 610 35,000  Level Toronto Center
07:45AM 47.0667 -85.0167 121° Southeast 530 610 35,000  Level Toronto Center
07:46AM 46.9833 -84.8333 124° Southeast 530 610 35,000 50 Level Toronto Center
07:47AM 46.9167 -84.6333 116° Southeast 530 610 35,100  Climbing Toronto Center
07:48AM 46.8333 -84.4500 124° Southeast 530 610 35,000 -50 Descending Toronto Center
07:49AM 46.7500 -84.3000 129° Southeast 520 598 35,000  Level Toronto Center
07:50AM 46.6833 -84.1000 116° Southeast 520 598 35,000  Level Toronto Center
07:51AM 46.6000 -83.9333 126° Southeast 520 598 35,000  Level Toronto Center
07:52AM 46.5333 -83.7333 116° Southeast 520 598 35,000  Level Toronto Center
07:53AM 46.4667 -83.5500 118° Southeast 530 610 35,000  Level Toronto Center
07:54AM 46.3833 -83.3833 126° Southeast 530 610 35,000  Level Toronto Center
07:55AM 46.3167 -83.2000 118° Southeast 530 610 35,000  Level Toronto Center
07:56AM 46.2333 -83.0333 126° Southeast 530 610 35,000  Level Toronto Center
07:57AM 46.1500 -82.8333 121° Southeast 530 610 35,000  Level Toronto Center
07:58AM 46.1000 -82.6667 113° Southeast 530 610 35,000  Level Toronto Center
07:59AM 46.0167 -82.4667 121° Southeast 530 610 35,000  Level Toronto Center
08:00AM 45.9333 -82.3000 126° Southeast 530 610 35,000  Level Toronto Center
08:01AM 45.8500 -82.1000 121° Southeast 530 610 35,000 50 Level Toronto Center
08:02AM 45.7833 -81.9333 120° Southeast 540 621 35,100  Climbing Toronto Center
08:03AM 45.7000 -81.7333 121° Southeast 530 610 35,000 -50 Descending Toronto Center
08:04AM 45.6167 -81.5667 126° Southeast 540 621 35,000  Level Toronto Center
08:05AM 45.5167 -81.4167 134° Southeast 530 610 35,000  Level Toronto Center
08:06AM 45.4000 -81.3000 145° Southeast 520 598 35,000  Level Toronto Center
08:07AM 45.2833 -81.1667 141° Southeast 520 598 35,000  Level Toronto Center
08:08AM 45.1500 -81.0500 148° Southeast 530 610 35,000  Level Toronto Center
08:09AM 45.0333 -80.9500 149° Southeast 520 598 35,000  Level Toronto Center
08:10AM 44.9333 -80.8333 140° Southeast 520 598 35,000 -300 Level Toronto Center
08:11AM 44.8000 -80.7167 148° Southeast 520 598 34,400 -1,800 Descending Toronto Center
08:12AM 44.6833 -80.6167 149° Southeast 510 587 31,400 -3,150 Descending Toronto Center
08:13AM 44.5667 -80.5167 149° Southeast 500 575 28,100 -3,200 Descending Toronto Center
08:14AM 44.4500 -80.4000 144° Southeast 490 564 25,000 -3,100 Descending Toronto Center
08:15AM 44.3500 -80.3167 149° Southeast 490 564 21,900 -3,050 Descending Toronto Center
08:16AM 44.2333 -80.2167 148° Southeast 470 541 18,900 -2,950 Descending Toronto Center
08:17AM 44.1333 -80.1167 144° Southeast 440 506 16,000 -2,700 Descending Toronto Center
08:18AM 44.0333 -80.0333 149° Southeast 410 472 13,500 -2,000 Descending Toronto Center
08:19AM 43.9667 -79.9333 133° Southeast 350 403 12,000 -800 Descending Toronto Center
08:20AM 43.9000 -79.8667 144° Southeast 330 380 11,900 -1,000 Descending Toronto Center
08:21AM 43.8167 -79.8000 150° Southeast 320 368 10,000 -1,850 Descending Toronto Center
08:22AM 43.7667 -79.7000 125° Southeast 310 357 8,200 -1,850 Descending Toronto Center
08:23AM 43.8000 -79.6167 61° Northeast 290 334 6,300 -1,850 Descending Toronto Center
08:24AM 43.8500 -79.5333 50° Northeast 280 322 4,500 -1,550 Descending Toronto Center
08:25AM 43.8500 -79.4500 90° East 270 311 3,200 -750 Descending Toronto Center
08:26AM 43.7833 -79.4667 190° South 210 242 3,000 -250 Descending Toronto Center
08:27AM 43.7500 -79.5167 227° Southwest 190 219 2,700 -700 Descending Toronto Center
08:28AM 43.7167 -79.5667 227° Southwest 180 207 1,600 -850 Descending Toronto Center
08:29AM 43.7000 -79.5833 216° Southwest 130 150 1,000 -550 Descending Toronto Center
08:30AM 43.6833 -79.6333 245° Southwest 110 127 500 -500 Descending Toronto Center

Login

Don't have an account? Register now (free) for customized features, flight alerts, and more!